Time,TemperatureF,DewpointF,PressureIn,WindDirection,WindDirectionDegrees,WindSpeedMPH,WindSpeedGustMPH,Humidity,HourlyPrecipIn,Conditions,Clouds,dailyrainin,SoftwareType,DateUTC
2013-05-23 00:00:00,54.3,52.0,29.67,North,0,0.0,0.0,92,0.00,,,-99.99,VWS V12.07,2013-05-23 05:00:00,
2013-05-23 00:10:00,54.3,52.0,29.67,North,0,0.0,0.0,92,0.00,,,-99.99,VWS V12.07,2013-05-23 05:10:00,
2013-05-23 00:16:00,54.3,52.0,29.67,North,0,0.0,0.0,92,0.00,,,-99.99,VWS V12.07,2013-05-23 05:16:00,
2013-05-23 00:20:00,54.3,52.0,29.67,North,0,0.0,0.0,92,0.00,,,-99.99,VWS V12.07,2013-05-23 05:20:00,
2013-05-23 00:25:00,54.5,52.2,29.67,North,0,0.0,0.0,92,0.00,,,-99.99,VWS V12.07,2013-05-23 05:25:00,
2013-05-23 00:30:00,54.5,52.2,29.67,North,0,0.0,0.0,92,0.00,,,-99.99,VWS V12.07,2013-05-23 05:30:00,
2013-05-23 00:35:00,54.3,52.0,29.67,North,0,0.0,0.0,92,0.00,,,-99.99,VWS V12.07,2013-05-23 05:35:00,
2013-05-23 00:40:00,54.1,51.9,29.67,North,0,0.0,0.0,92,0.00,,,-99.99,VWS V12.07,2013-05-23 05:40:00,
2013-05-23 00:50:00,54.1,51.9,29.67,North,0,0.0,0.0,92,0.00,,,-99.99,VWS V12.07,2013-05-23 05:50:00,
2013-05-23 00:55:00,54.1,51.9,29.67,North,0,0.0,0.0,92,0.00,,,-99.99,VWS V12.07,2013-05-23 05:55:00,
2013-05-23 01:00:00,54.0,51.7,29.67,North,0,0.0,0.0,92,0.00,,,-99.99,VWS V12.07,2013-05-23 06:00:00,
2013-05-23 01:05:00,54.0,51.7,29.67,North,0,0.0,0.0,92,0.00,,,-99.99,VWS V12.07,2013-05-23 06:05:00,
2013-05-23 01:10:00,53.8,51.5,29.67,North,0,0.0,0.0,92,0.00,,,-99.99,VWS V12.07,2013-05-23 06:10:00,
2013-05-23 01:21:00,54.0,51.7,29.67,North,0,0.0,0.0,92,0.00,,,-99.99,VWS V12.07,2013-05-23 06:21:00,
2013-05-23 01:30:00,53.8,51.5,29.67,North,0,0.0,0.0,92,0.00,,,-99.99,VWS V12.07,2013-05-23 06:30:00,
2013-05-23 01:35:00,54.0,51.7,29.67,North,0,0.0,0.0,92,0.00,,,-99.99,VWS V12.07,2013-05-23 06:35:00,
2013-05-23 01:40:00,54.0,51.7,29.67,North,0,0.0,0.0,92,0.00,,,-99.99,VWS V12.07,2013-05-23 06:40:00,
2013-05-23 01:45:00,54.1,51.9,29.67,North,0,0.0,0.0,92,0.00,,,-99.99,VWS V12.07,2013-05-23 06:45:00,
2013-05-23 01:51:00,54.1,51.9,29.67,North,0,0.0,0.0,92,0.00,,,-99.99,VWS V12.07,2013-05-23 06:51:00,
2013-05-23 02:00:00,54.0,51.7,29.67,North,0,0.0,0.0,92,0.00,,,-99.99,VWS V12.07,2013-05-23 07:00:00,
2013-05-23 02:05:00,54.0,51.7,29.67,North,0,0.0,0.0,92,0.00,,,-99.99,VWS V12.07,2013-05-23 07:05:00,
2013-05-23 02:10:00,53.8,51.5,29.67,North,0,0.0,0.0,92,0.00,,,-99.99,VWS V12.07,2013-05-23 07:10:00,
2013-05-23 02:21:00,53.6,51.3,29.70,North,0,0.0,0.0,92,0.00,,,-99.99,VWS V12.07,2013-05-23 07:21:00,
2013-05-23 02:30:00,53.2,51.0,29.70,North,0,0.0,0.0,92,0.00,,,-99.99,VWS V12.07,2013-05-23 07:30:00,
2013-05-23 02:35:00,53.2,51.0,29.70,North,0,0.0,0.0,92,0.00,,,-99.99,VWS V12.07,2013-05-23 07:35:00,
2013-05-23 02:40:00,53.1,50.8,29.70,North,0,0.0,0.0,92,0.00,,,-99.99,VWS V12.07,2013-05-23 07:40:00,
2013-05-23 02:45:00,53.1,50.8,29.70,North,0,0.0,0.0,92,0.00,,,-99.99,VWS V12.07,2013-05-23 07:45:00,
2013-05-23 02:51:00,52.9,50.6,29.70,North,0,0.0,0.0,92,0.00,,,-99.99,VWS V12.07,2013-05-23 07:51:00,
2013-05-23 02:56:00,53.1,50.8,29.70,North,0,0.0,0.0,92,0.00,,,-99.99,VWS V12.07,2013-05-23 07:56:00,
2013-05-23 03:05:00,53.1,50.8,29.70,North,0,0.0,0.0,92,0.00,,,-99.99,VWS V12.07,2013-05-23 08:05:00,
2013-05-23 03:10:00,53.1,50.8,29.70,North,0,0.0,0.0,92,0.00,,,-99.99,VWS V12.07,2013-05-23 08:10:00,
2013-05-23 03:15:00,53.1,50.8,29.70,North,0,0.0,0.0,92,0.00,,,-99.99,VWS V12.07,2013-05-23 08:15:00,
2013-05-23 03:20:00,53.1,50.8,29.70,North,0,0.0,0.0,92,0.00,,,-99.99,VWS V12.07,2013-05-23 08:20:00,
2013-05-23 03:26:00,53.1,50.8,29.70,North,0,0.0,0.0,92,0.00,,,-99.99,VWS V12.07,2013-05-23 08:26:00,
2013-05-23 03:35:00,53.1,50.8,29.70,North,0,0.0,0.0,92,0.00,,,-99.99,VWS V12.07,2013-05-23 08:35:00,
2013-05-23 03:40:00,52.9,50.6,29.70,North,0,0.0,0.0,92,0.00,,,-99.99,VWS V12.07,2013-05-23 08:40:00,
2013-05-23 03:45:00,52.9,50.6,29.70,North,0,0.0,0.0,92,0.00,,,-99.99,VWS V12.07,2013-05-23 08:45:00,
2013-05-23 03:50:00,52.7,50.5,29.73,North,0,0.0,0.0,92,0.00,,,-99.99,VWS V12.07,2013-05-23 08:50:00,
2013-05-23 03:56:00,52.5,50.3,29.73,North,0,0.0,0.0,92,0.00,,,-99.99,VWS V12.07,2013-05-23 08:56:00,
2013-05-23 04:05:00,52.3,50.1,29.73,North,0,0.0,0.0,92,0.00,,,-99.99,VWS V12.07,2013-05-23 09:05:00,
2013-05-23 04:10:00,52.3,50.1,29.73,North,0,0.0,0.0,92,0.08,,,-99.99,VWS V12.07,2013-05-23 09:10:00,
2013-05-23 04:15:00,52.2,49.9,29.73,North,0,0.0,0.0,92,0.08,,,-99.99,VWS V12.07,2013-05-23 09:15:00,
2013-05-23 04:20:00,52.0,49.4,29.73,North,0,0.0,0.0,91,0.08,,,-99.99,VWS V12.07,2013-05-23 09:20:00,
2013-05-23 04:26:00,51.8,49.3,29.73,North,0,0.0,0.0,91,0.08,,,-99.99,VWS V12.07,2013-05-23 09:26:00,
2013-05-23 04:35:00,51.6,49.1,29.73,North,0,0.0,0.0,91,0.08,,,-99.99,VWS V12.07,2013-05-23 09:35:00,
2013-05-23 04:40:00,51.6,49.1,29.73,North,0,0.0,0.0,91,0.08,,,-99.99,VWS V12.07,2013-05-23 09:40:00,
2013-05-23 04:45:00,51.4,48.6,29.73,North,0,0.0,0.0,90,0.08,,,-99.99,VWS V12.07,2013-05-23 09:45:00,
2013-05-23 04:50:00,51.6,48.8,29.73,North,0,0.0,0.0,90,0.08,,,-99.99,VWS V12.07,2013-05-23 09:50:00,
2013-05-23 05:01:00,51.4,48.6,29.73,North,0,0.0,0.0,90,0.08,,,-99.99,VWS V12.07,2013-05-23 10:01:00,
2013-05-23 05:10:00,51.4,48.6,29.76,North,0,0.0,0.0,90,0.08,,,-99.99,VWS V12.07,2013-05-23 10:10:00,
2013-05-23 05:15:00,51.4,48.6,29.76,North,0,0.0,0.0,90,0.08,,,-99.99,VWS V12.07,2013-05-23 10:15:00,
2013-05-23 05:20:00,51.4,48.6,29.76,North,0,0.0,0.0,90,0.08,,,-99.99,VWS V12.07,2013-05-23 10:20:00,
2013-05-23 05:26:00,51.6,48.8,29.76,North,0,0.0,0.0,90,0.08,,,-99.99,VWS V12.07,2013-05-23 10:26:00,
2013-05-23 05:35:00,51.3,48.4,29.76,North,0,0.0,0.0,90,0.08,,,-99.99,VWS V12.07,2013-05-23 10:35:00,
2013-05-23 05:40:00,51.3,48.4,29.76,North,0,0.0,0.0,90,0.08,,,-99.99,VWS V12.07,2013-05-23 10:40:00,
2013-05-23 05:45:00,51.1,48.2,29.76,North,0,0.0,0.0,90,0.08,,,-99.99,VWS V12.07,2013-05-23 10:45:00,
2013-05-23 05:50:00,51.1,48.2,29.79,North,0,0.0,0.0,90,0.08,,,-99.99,VWS V12.07,2013-05-23 10:50:00,
2013-05-23 05:56:00,50.9,48.1,29.79,North,0,0.0,0.0,90,0.08,,,-99.99,VWS V12.07,2013-05-23 10:56:00,
2013-05-23 06:05:00,50.5,47.4,29.79,North,0,0.0,0.0,89,0.00,,,-99.99,VWS V12.07,2013-05-23 11:05:00,
2013-05-23 06:10:00,50.5,47.4,29.79,North,0,0.0,0.0,89,0.00,,,-99.99,VWS V12.07,2013-05-23 11:10:00,
2013-05-23 06:15:00,50.4,47.2,29.79,North,0,0.0,0.0,89,0.00,,,-99.99,VWS V12.07,2013-05-23 11:15:00,
2013-05-23 06:20:00,50.2,46.8,29.79,North,0,0.0,0.0,88,0.00,,,-99.99,VWS V12.07,2013-05-23 11:20:00,
2013-05-23 06:25:00,50.2,46.8,29.79,North,0,0.0,0.0,88,0.00,,,-99.99,VWS V12.07,2013-05-23 11:25:00,
2013-05-23 06:31:00,50.0,46.6,29.79,North,0,0.0,0.0,88,0.00,,,-99.99,VWS V12.07,2013-05-23 11:31:00,
2013-05-23 06:40:00,50.0,46.6,29.79,North,0,0.0,0.0,88,0.00,,,-99.99,VWS V12.07,2013-05-23 11:40:00,
2013-05-23 06:45:00,50.0,46.6,29.79,North,0,0.0,0.0,88,0.00,,,-99.99,VWS V12.07,2013-05-23 11:45:00,
2013-05-23 06:50:00,50.0,46.6,29.82,North,0,0.0,0.0,88,0.00,,,-99.99,VWS V12.07,2013-05-23 11:50:00,
2013-05-23 06:55:00,49.8,46.4,29.82,North,0,0.0,0.0,88,0.00,,,-99.99,VWS V12.07,2013-05-23 11:55:00,
2013-05-23 07:00:00,49.6,46.2,29.82,North,0,0.0,0.0,88,0.00,,,-99.99,VWS V12.07,2013-05-23 12:00:00,
2013-05-23 07:06:00,49.5,46.1,29.82,North,0,0.0,0.0,88,0.00,,,-99.99,VWS V12.07,2013-05-23 12:06:00,
2013-05-23 07:15:00,49.5,46.1,29.82,North,0,0.0,0.0,88,0.00,,,-99.99,VWS V12.07,2013-05-23 12:15:00,
2013-05-23 07:20:00,49.3,45.9,29.82,North,0,0.0,0.0,88,0.00,,,-99.99,VWS V12.07,2013-05-23 12:20:00,
2013-05-23 07:25:00,49.3,45.9,29.82,North,0,0.0,0.0,88,0.00,,,-99.99,VWS V12.07,2013-05-23 12:25:00,
2013-05-23 07:30:00,49.1,45.4,29.82,North,0,0.0,0.0,87,0.00,,,-99.99,VWS V12.07,2013-05-23 12:30:00,
2013-05-23 07:40:00,49.3,45.6,29.85,North,0,0.0,0.0,87,0.00,,,-99.99,VWS V12.07,2013-05-23 12:40:00,
2013-05-23 07:45:00,49.3,45.6,29.85,North,0,0.0,0.0,87,0.00,,,-99.99,VWS V12.07,2013-05-23 12:45:00,
2013-05-23 07:50:00,49.3,45.6,29.85,North,0,0.0,0.0,87,0.00,,,-99.99,VWS V12.07,2013-05-23 12:50:00,
2013-05-23 07:55:00,49.3,45.6,29.85,North,0,0.0,0.0,87,0.00,,,-99.99,VWS V12.07,2013-05-23 12:55:00,
2013-05-23 08:00:00,49.1,45.4,29.85,North,0,0.0,0.0,87,0.00,,,-99.99,VWS V12.07,2013-05-23 13:00:00,
2013-05-23 08:06:00,49.1,45.4,29.85,North,0,0.0,0.0,87,0.00,,,-99.99,VWS V12.07,2013-05-23 13:06:00,
2013-05-23 08:15:00,48.9,44.9,29.85,North,0,0.0,0.0,86,0.00,,,-99.99,VWS V12.07,2013-05-23 13:15:00,
2013-05-23 08:20:00,48.7,44.8,29.88,North,0,0.0,0.0,86,0.00,,,-99.99,VWS V12.07,2013-05-23 13:20:00,
2013-05-23 08:25:00,48.7,44.8,29.88,North,0,0.0,0.0,86,0.00,,,-99.99,VWS V12.07,2013-05-23 13:25:00,
2013-05-23 08:30:00,48.7,44.8,29.88,North,0,0.0,0.0,86,0.00,,,-99.99,VWS V12.07,2013-05-23 13:30:00,
2013-05-23 08:36:00,48.7,44.8,29.88,North,0,0.0,0.0,86,0.00,,,-99.99,VWS V12.07,2013-05-23 13:36:00,
2013-05-23 08:45:00,48.6,44.6,29.88,North,0,0.0,0.0,86,0.00,,,-99.99,VWS V12.07,2013-05-23 13:45:00,
2013-05-23 08:50:00,48.6,44.6,29.88,North,0,0.0,0.0,86,0.00,,,-99.99,VWS V12.07,2013-05-23 13:50:00,
2013-05-23 08:55:00,48.4,44.4,29.88,North,0,0.0,0.0,86,0.00,,,-99.99,VWS V12.07,2013-05-23 13:55:00,
2013-05-23 09:00:00,48.2,44.2,29.88,North,0,0.0,0.0,86,0.00,,,-99.99,VWS V12.07,2013-05-23 14:00:00,
2013-05-23 09:05:00,48.2,43.9,29.91,North,0,0.0,0.0,85,0.00,,,-99.99,VWS V12.07,2013-05-23 14:05:00,
2013-05-23 09:15:00,48.0,43.7,29.91,North,0,0.0,0.0,85,0.00,,,-99.99,VWS V12.07,2013-05-23 14:15:00,
2013-05-23 09:20:00,48.0,43.7,29.91,North,0,0.0,0.0,85,0.00,,,-99.99,VWS V12.07,2013-05-23 14:20:00,
2013-05-23 09:25:00,48.0,43.7,29.91,North,0,0.0,0.0,85,0.00,,,-99.99,VWS V12.07,2013-05-23 14:25:00,
2013-05-23 09:30:00,48.0,43.7,29.91,North,0,0.0,0.0,85,0.00,,,-99.99,VWS V12.07,2013-05-23 14:30:00,
2013-05-23 09:35:00,48.0,43.4,29.91,North,0,0.0,0.0,84,0.00,,,-99.99,VWS V12.07,2013-05-23 14:35:00,
2013-05-23 09:40:00,47.8,43.2,29.91,North,0,0.0,0.0,84,0.00,,,-99.99,VWS V12.07,2013-05-23 14:40:00,
2013-05-23 09:50:00,47.7,42.8,29.94,North,0,0.0,0.0,83,0.00,,,-99.99,VWS V12.07,2013-05-23 14:50:00,
2013-05-23 09:55:00,47.3,42.1,29.94,North,0,0.0,0.0,82,0.00,,,-99.99,VWS V12.07,2013-05-23 14:55:00,
2013-05-23 10:00:00,47.1,41.9,29.94,North,0,0.0,0.0,82,0.00,,,-99.99,VWS V12.07,2013-05-23 15:00:00,
2013-05-23 10:05:00,47.1,41.9,29.94,North,0,0.0,0.0,82,0.00,,,-99.99,VWS V12.07,2013-05-23 15:05:00,
2013-05-23 10:11:00,46.9,41.7,29.94,North,0,0.0,0.0,82,0.00,,,-99.99,VWS V12.07,2013-05-23 15:11:00,
2013-05-23 10:20:00,47.1,41.9,29.94,North,0,0.0,0.0,82,0.00,,,-99.99,VWS V12.07,2013-05-23 15:20:00,
2013-05-23 10:25:00,46.9,41.4,29.94,North,0,0.0,0.0,81,0.00,,,-99.99,VWS V12.07,2013-05-23 15:25:00,
2013-05-23 10:30:00,47.1,41.6,29.94,North,0,0.0,0.0,81,0.00,,,-99.99,VWS V12.07,2013-05-23 15:30:00,
2013-05-23 10:41:00,47.1,41.6,29.94,North,0,0.0,0.0,81,0.00,,,-99.99,VWS V12.07,2013-05-23 15:41:00,
2013-05-23 10:50:00,47.1,41.3,29.97,North,0,0.0,0.0,80,0.00,,,-99.99,VWS V12.07,2013-05-23 15:50:00,
2013-05-23 10:55:00,47.1,41.0,29.97,North,0,0.0,0.0,79,0.00,,,-99.99,VWS V12.07,2013-05-23 15:55:00,
2013-05-23 11:00:00,47.3,41.1,29.97,North,0,0.0,0.0,79,0.00,,,-99.99,VWS V12.07,2013-05-23 16:00:00,
2013-05-23 11:11:00,47.3,40.8,29.97,North,0,0.0,0.0,78,0.00,,,-99.99,VWS V12.07,2013-05-23 16:11:00,
2013-05-23 11:20:00,47.3,40.5,29.97,North,0,0.0,0.0,77,0.00,,,-99.99,VWS V12.07,2013-05-23 16:20:00,
2013-05-23 11:25:00,47.3,40.5,29.97,North,0,0.0,0.0,77,0.00,,,-99.99,VWS V12.07,2013-05-23 16:25:00,
2013-05-23 11:30:00,47.3,40.1,29.97,North,0,0.0,0.0,76,0.00,,,-99.99,VWS V12.07,2013-05-23 16:30:00,
2013-05-23 11:41:00,47.7,39.8,29.97,North,0,0.0,0.0,74,0.00,,,-99.99,VWS V12.07,2013-05-23 16:41:00,
2013-05-23 11:50:00,48.2,39.6,30.00,North,0,0.0,0.0,72,0.00,,,-99.99,VWS V12.07,2013-05-23 16:50:00,
2013-05-23 11:55:00,48.4,39.4,30.00,North,0,0.0,0.0,71,0.00,,,-99.99,VWS V12.07,2013-05-23 16:55:00,
2013-05-23 12:00:00,48.6,38.9,30.00,North,0,0.0,0.0,69,0.00,,,-99.99,VWS V12.07,2013-05-23 17:00:00,
2013-05-23 12:06:00,48.7,38.7,30.00,North,0,0.0,0.0,68,0.00,,,-99.99,VWS V12.07,2013-05-23 17:06:00,
2013-05-23 12:15:00,48.7,37.9,30.00,North,0,0.0,0.0,66,0.00,,,-99.99,VWS V12.07,2013-05-23 17:15:00,
2013-05-23 12:20:00,48.7,37.9,30.00,North,0,0.0,0.0,66,0.00,,,-99.99,VWS V12.07,2013-05-23 17:20:00,
2013-05-23 12:31:00,48.7,37.1,30.00,North,0,0.0,0.0,64,0.00,,,-99.99,VWS V12.07,2013-05-23 17:31:00,
2013-05-23 12:40:00,49.1,37.9,30.00,North,0,0.0,0.0,65,0.00,,,-99.99,VWS V12.07,2013-05-23 17:40:00,
2013-05-23 12:45:00,49.5,38.2,30.00,North,0,0.0,0.0,65,0.00,,,-99.99,VWS V12.07,2013-05-23 17:45:00,
2013-05-23 12:50:00,49.5,37.8,30.00,North,0,0.0,0.0,64,0.00,,,-99.99,VWS V12.07,2013-05-23 17:50:00,
2013-05-23 12:55:00,49.6,38.0,30.00,North,0,0.0,0.0,64,0.00,,,-99.99,VWS V12.07,2013-05-23 17:55:00,
2013-05-23 13:05:00,49.8,38.2,30.00,North,0,0.0,0.0,64,0.00,,,-99.99,VWS V12.07,2013-05-23 18:05:00,
2013-05-23 13:10:00,50.0,38.3,30.00,North,0,0.0,0.0,64,0.00,,,-99.99,VWS V12.07,2013-05-23 18:10:00,
2013-05-23 13:15:00,50.4,38.7,30.00,North,0,0.0,0.0,64,0.00,,,-99.99,VWS V12.07,2013-05-23 18:15:00,
2013-05-23 13:20:00,50.5,38.4,30.03,North,0,0.0,0.0,63,0.00,,,-99.99,VWS V12.07,2013-05-23 18:20:00,
2013-05-23 13:25:00,50.9,38.0,30.03,North,0,0.0,0.0,61,0.00,,,-99.99,VWS V12.07,2013-05-23 18:25:00,
2013-05-23 13:35:00,51.3,37.0,30.03,North,0,0.0,0.0,58,0.00,,,-99.99,VWS V12.07,2013-05-23 18:35:00,
2013-05-23 13:40:00,51.6,36.5,30.03,North,0,0.0,0.0,56,0.00,,,-99.99,VWS V12.07,2013-05-23 18:40:00,
2013-05-23 13:45:00,52.0,35.9,30.03,North,0,0.0,0.0,54,0.00,,,-99.99,VWS V12.07,2013-05-23 18:45:00,
2013-05-23 13:50:00,52.2,36.0,30.03,North,0,0.0,0.0,54,0.00,,,-99.99,VWS V12.07,2013-05-23 18:50:00,
2013-05-23 13:56:00,52.5,36.4,30.03,North,0,0.0,0.0,54,0.00,,,-99.99,VWS V12.07,2013-05-23 18:56:00,
2013-05-23 14:05:00,52.5,36.4,30.03,North,0,0.0,0.0,54,0.00,,,-99.99,VWS V12.07,2013-05-23 19:05:00,
2013-05-23 14:10:00,52.9,36.2,30.03,North,0,0.0,0.0,53,0.00,,,-99.99,VWS V12.07,2013-05-23 19:10:00,
2013-05-23 14:15:00,53.4,35.8,30.03,North,0,0.0,0.0,51,0.00,,,-99.99,VWS V12.07,2013-05-23 19:15:00,
2013-05-23 14:20:00,54.3,35.6,30.03,North,0,0.0,0.0,49,0.00,,,-99.99,VWS V12.07,2013-05-23 19:20:00,
2013-05-23 14:30:00,54.9,36.1,30.03,North,0,0.0,0.0,49,0.00,,,-99.99,VWS V12.07,2013-05-23 19:30:00,
2013-05-23 14:35:00,55.2,36.4,30.03,North,0,0.0,0.0,49,0.00,,,-99.99,VWS V12.07,2013-05-23 19:35:00,
2013-05-23 14:40:00,55.8,36.4,30.03,North,0,0.0,0.0,48,0.00,,,-99.99,VWS V12.07,2013-05-23 19:40:00,
2013-05-23 14:45:00,55.9,36.0,30.03,North,0,0.0,0.0,47,0.00,,,-99.99,VWS V12.07,2013-05-23 19:45:00,
2013-05-23 14:51:00,56.1,35.6,30.03,North,0,0.0,0.0,46,0.00,,,-99.99,VWS V12.07,2013-05-23 19:51:00,
2013-05-23 15:00:00,55.9,34.9,30.03,North,0,0.0,0.0,45,0.00,,,-99.99,VWS V12.07,2013-05-23 20:00:00,
2013-05-23 15:10:00,55.4,35.0,30.03,North,0,0.0,0.0,46,0.00,,,-99.99,VWS V12.07,2013-05-23 20:10:00,
2013-05-23 15:15:00,55.4,35.5,30.03,North,0,0.0,0.0,47,0.00,,,-99.99,VWS V12.07,2013-05-23 20:15:00,
2013-05-23 15:20:00,55.0,35.2,30.03,North,0,0.0,0.0,47,0.00,,,-99.99,VWS V12.07,2013-05-23 20:20:00,
2013-05-23 15:26:00,55.0,35.7,30.03,North,0,0.0,0.0,48,0.00,,,-99.99,VWS V12.07,2013-05-23 20:26:00,
2013-05-23 15:35:00,54.9,35.6,30.06,North,0,0.0,0.0,48,0.00,,,-99.99,VWS V12.07,2013-05-23 20:35:00,
2013-05-23 15:40:00,54.7,34.9,30.06,North,0,0.0,0.0,47,0.00,,,-99.99,VWS V12.07,2013-05-23 20:40:00,
2013-05-23 15:51:00,54.1,34.9,30.06,North,0,0.0,0.0,48,0.00,,,-99.99,VWS V12.07,2013-05-23 20:51:00,
2013-05-23 16:00:00,54.0,34.7,30.06,North,0,0.0,0.0,48,0.00,,,-99.99,VWS V12.07,2013-05-23 21:00:00,
2013-05-23 16:15:00,54.1,34.9,30.06,North,0,0.0,0.0,48,0.00,,,-99.99,VWS V12.07,2013-05-23 21:15:00,
2013-05-23 16:25:00,54.0,34.2,30.06,North,0,0.0,0.0,47,0.00,,,-99.99,VWS V12.07,2013-05-23 21:25:00,
2013-05-23 16:30:00,53.6,33.3,30.06,North,0,0.0,0.0,46,0.00,,,-99.99,VWS V12.07,2013-05-23 21:30:00,
2013-05-23 16:35:00,53.1,33.4,30.06,North,0,0.0,0.0,47,0.00,,,-99.99,VWS V12.07,2013-05-23 21:35:00,
2013-05-23 16:40:00,53.1,33.4,30.06,North,0,0.0,0.0,47,0.00,,,-99.99,VWS V12.07,2013-05-23 21:40:00,
2013-05-23 16:45:00,53.1,33.4,30.06,North,0,0.0,0.0,47,0.00,,,-99.99,VWS V12.07,2013-05-23 21:45:00,
2013-05-23 16:51:00,53.1,33.9,30.09,North,0,0.0,0.0,48,0.00,,,-99.99,VWS V12.07,2013-05-23 21:51:00,
2013-05-23 17:00:00,53.2,33.5,30.09,North,0,0.0,0.0,47,0.00,,,-99.99,VWS V12.07,2013-05-23 22:00:00,
2013-05-23 17:10:00,53.6,33.3,30.09,North,0,0.0,0.0,46,0.00,,,-99.99,VWS V12.07,2013-05-23 22:10:00,
2013-05-23 17:15:00,53.6,33.3,30.09,North,0,0.0,0.0,46,0.00,,,-99.99,VWS V12.07,2013-05-23 22:15:00,
2013-05-23 17:20:00,53.8,33.5,30.09,North,0,0.0,0.0,46,0.00,,,-99.99,VWS V12.07,2013-05-23 22:20:00,
2013-05-23 17:26:00,53.6,33.3,30.09,North,0,0.0,0.0,46,0.00,,,-99.99,VWS V12.07,2013-05-23 22:26:00,
2013-05-23 17:45:00,53.2,33.5,30.09,North,0,0.0,0.0,47,0.00,,,-99.99,VWS V12.07,2013-05-23 22:45:00,
2013-05-23 17:51:00,53.2,32.5,30.09,North,0,0.0,0.0,45,0.00,,,-99.99,VWS V12.07,2013-05-23 22:51:00,
2013-05-23 18:00:00,53.2,33.0,30.09,North,0,0.0,0.0,46,0.00,,,-99.99,VWS V12.07,2013-05-23 23:00:00,
2013-05-23 18:05:00,53.2,31.3,30.12,North,0,0.0,0.0,43,0.00,,,-99.99,VWS V12.07,2013-05-23 23:05:00,
2013-05-23 18:10:00,52.9,31.0,30.12,North,0,0.0,0.0,43,0.00,,,-99.99,VWS V12.07,2013-05-23 23:10:00,
2013-05-23 18:16:00,52.9,31.0,30.12,North,0,0.0,0.0,43,0.00,,,-99.99,VWS V12.07,2013-05-23 23:16:00,
2013-05-23 18:25:00,52.7,30.9,30.12,North,0,0.0,0.0,43,0.00,,,-99.99,VWS V12.07,2013-05-23 23:25:00,
2013-05-23 18:30:00,52.3,29.4,30.12,North,0,0.0,0.0,41,0.00,,,-99.99,VWS V12.07,2013-05-23 23:30:00,
2013-05-23 18:35:00,52.0,29.0,30.12,North,0,0.0,0.0,41,0.00,,,-99.99,VWS V12.07,2013-05-23 23:35:00,
2013-05-23 18:40:00,51.6,29.3,30.12,North,0,0.0,0.0,42,0.00,,,-99.99,VWS V12.07,2013-05-23 23:40:00,
2013-05-23 18:46:00,51.3,29.0,30.12,North,0,0.0,0.0,42,0.00,,,-99.99,VWS V12.07,2013-05-23 23:46:00,
2013-05-23 18:55:00,50.2,28.0,30.12,North,0,0.0,0.0,42,0.00,,,-99.99,VWS V12.07,2013-05-23 23:55:00,
2013-05-23 19:00:00,50.0,28.4,30.12,North,0,0.0,0.0,43,0.00,,,-99.99,VWS V12.07,2013-05-24 00:00:00,
2013-05-23 19:11:00,49.3,28.3,30.15,North,0,0.0,0.0,44,0.00,,,-99.99,VWS V12.07,2013-05-24 00:11:00,
2013-05-23 19:20:00,48.7,27.8,30.15,North,0,0.0,0.0,44,0.00,,,-99.99,VWS V12.07,2013-05-24 00:20:00,
2013-05-23 19:25:00,48.6,28.2,30.15,North,0,0.0,0.0,45,0.00,,,-99.99,VWS V12.07,2013-05-24 00:25:00,
2013-05-23 19:30:00,48.4,28.0,30.15,North,0,0.0,0.0,45,0.00,,,-99.99,VWS V12.07,2013-05-24 00:30:00,
2013-05-23 19:35:00,48.0,27.7,30.15,North,0,0.0,0.0,45,0.00,,,-99.99,VWS V12.07,2013-05-24 00:35:00,
2013-05-23 19:41:00,47.8,28.1,30.15,North,0,0.0,0.0,46,0.00,,,-99.99,VWS V12.07,2013-05-24 00:41:00,
2013-05-23 19:50:00,47.3,28.1,30.15,North,0,0.0,0.0,47,0.00,,,-99.99,VWS V12.07,2013-05-24 00:50:00,
2013-05-23 19:55:00,47.1,27.9,30.15,North,0,0.0,0.0,47,0.00,,,-99.99,VWS V12.07,2013-05-24 00:55:00,
2013-05-23 20:00:00,46.9,27.8,30.15,North,0,0.0,0.0,47,0.00,,,-99.99,VWS V12.07,2013-05-24 01:00:00,
2013-05-23 20:11:00,46.6,27.5,30.15,North,0,0.0,0.0,47,0.00,,,-99.99,VWS V12.07,2013-05-24 01:11:00,
2013-05-23 20:20:00,45.9,27.3,30.15,North,0,0.0,0.0,48,0.00,,,-99.99,VWS V12.07,2013-05-24 01:20:00,
2013-05-23 20:25:00,45.5,27.5,30.15,North,0,0.0,0.0,49,0.00,,,-99.99,VWS V12.07,2013-05-24 01:25:00,
2013-05-23 20:30:00,45.3,27.3,30.15,North,0,0.0,0.0,49,0.00,,,-99.99,VWS V12.07,2013-05-24 01:30:00,
2013-05-23 20:41:00,45.1,27.6,30.15,North,0,0.0,0.0,50,0.00,,,-99.99,VWS V12.07,2013-05-24 01:41:00,
2013-05-23 20:50:00,44.8,27.3,30.18,North,0,0.0,0.0,50,0.00,,,-99.99,VWS V12.07,2013-05-24 01:50:00,
2013-05-23 20:55:00,44.6,27.6,30.18,North,0,0.0,0.0,51,0.00,,,-99.99,VWS V12.07,2013-05-24 01:55:00,
2013-05-23 21:00:00,44.4,27.4,30.18,North,0,0.0,0.0,51,0.00,,,-99.99,VWS V12.07,2013-05-24 02:00:00,
2013-05-23 21:11:00,43.9,27.4,30.18,North,0,0.0,0.0,52,0.00,,,-99.99,VWS V12.07,2013-05-24 02:11:00,
2013-05-23 21:20:00,43.5,27.5,30.18,North,0,0.0,0.0,53,0.00,,,-99.99,VWS V12.07,2013-05-24 02:20:00,
2013-05-23 21:25:00,43.3,27.4,30.18,North,0,0.0,0.0,53,0.00,,,-99.99,VWS V12.07,2013-05-24 02:25:00,
2013-05-23 21:30:00,43.3,27.8,30.18,North,0,0.0,0.0,54,0.00,,,-99.99,VWS V12.07,2013-05-24 02:30:00,
2013-05-23 21:35:00,43.2,27.7,30.18,North,0,0.0,0.0,54,0.00,,,-99.99,VWS V12.07,2013-05-24 02:35:00,
2013-05-23 21:40:00,43.0,27.5,30.18,North,0,0.0,0.0,54,0.00,,,-99.99,VWS V12.07,2013-05-24 02:40:00,
2013-05-23 21:46:00,43.0,27.5,30.18,North,0,0.0,0.0,54,0.00,,,-99.99,VWS V12.07,2013-05-24 02:46:00,
2013-05-23 21:55:00,42.6,27.6,30.18,North,0,0.0,0.0,55,0.00,,,-99.99,VWS V12.07,2013-05-24 02:55:00,
2013-05-23 22:00:00,42.4,27.4,30.18,North,0,0.0,0.0,55,0.00,,,-99.99,VWS V12.07,2013-05-24 03:00:00,
2013-05-23 22:20:00,42.3,27.7,30.21,North,0,0.0,0.0,56,0.00,,,-99.99,VWS V12.07,2013-05-24 03:20:00,
2013-05-23 22:25:00,42.3,27.7,30.21,North,0,0.0,0.0,56,0.00,,,-99.99,VWS V12.07,2013-05-24 03:25:00,
2013-05-23 22:30:00,42.3,27.7,30.21,North,0,0.0,0.0,56,0.00,,,-99.99,VWS V12.07,2013-05-24 03:30:00,
2013-05-23 22:35:00,42.3,27.7,30.21,North,0,0.0,0.0,56,0.00,,,-99.99,VWS V12.07,2013-05-24 03:35:00,
2013-05-23 22:40:00,42.1,27.5,30.21,North,0,0.0,0.0,56,0.00,,,-99.99,VWS V12.07,2013-05-24 03:40:00,
2013-05-23 22:46:00,42.1,27.5,30.21,North,0,0.0,0.0,56,0.00,,,-99.99,VWS V12.07,2013-05-24 03:46:00,
2013-05-23 22:55:00,41.7,27.2,30.21,North,0,0.0,0.0,56,0.00,,,-99.99,VWS V12.07,2013-05-24 03:55:00,
2013-05-23 23:11:00,41.7,27.2,30.21,North,0,0.0,0.0,56,0.00,,,-99.99,VWS V12.07,2013-05-24 04:11:00,
2013-05-23 23:15:00,41.7,27.2,30.21,North,0,0.0,0.0,56,0.00,,,-99.99,VWS V12.07,2013-05-24 04:15:00,
2013-05-23 23:20:00,41.7,27.2,30.21,North,0,0.0,0.0,56,0.00,,,-99.99,VWS V12.07,2013-05-24 04:20:00,
2013-05-23 23:25:00,41.7,27.2,30.21,North,0,0.0,0.0,56,0.00,,,-99.99,VWS V12.07,2013-05-24 04:25:00,
2013-05-23 23:30:00,41.5,27.0,30.21,North,0,0.0,0.0,56,0.00,,,-99.99,VWS V12.07,2013-05-24 04:30:00,
2013-05-23 23:35:00,41.5,27.0,30.21,North,0,0.0,0.0,56,0.00,,,-99.99,VWS V12.07,2013-05-24 04:35:00,
2013-05-23 23:40:00,41.5,27.0,30.21,North,0,0.0,0.0,56,0.00,,,-99.99,VWS V12.07,2013-05-24 04:40:00,
2013-05-23 23:50:00,41.4,27.3,30.24,North,0,0.0,0.0,57,0.00,,,-99.99,VWS V12.07,2013-05-24 04:50:00,
2013-05-23 23:55:00,41.5,27.5,30.24,North,0,0.0,0.0,57,0.00,,,-99.99,VWS V12.07,2013-05-24 04:55:00,